createdAt,value
2022-10-14T00:01:52.036Z,23.2
2022-10-14T00:07:10.383Z,23.2
2022-10-14T00:12:28.969Z,23.2
2022-10-14T00:17:47.142Z,23.2
2022-10-14T00:23:05.338Z,23.3
2022-10-14T00:28:24.221Z,23.2
2022-10-14T00:33:42.477Z,23.3
2022-10-14T00:39:00.693Z,23.3
2022-10-14T00:44:19.214Z,23.3
2022-10-14T00:49:37.683Z,23.3
2022-10-14T00:54:56.188Z,23.3
2022-10-14T01:00:14.978Z,23.3
2022-10-14T01:05:33.720Z,23.3
2022-10-14T01:10:52.215Z,23.3
2022-10-14T01:16:10.729Z,23.3
2022-10-14T01:27:00.763Z,23.3
2022-10-14T01:32:20.315Z,23.3
2022-10-14T01:37:38.732Z,23.3
2022-10-14T01:42:57.217Z,23.3
2022-10-14T01:48:15.719Z,23.3
2022-10-14T01:53:33.908Z,23.3
2022-10-14T01:58:52.681Z,23.3
2022-10-14T02:04:11.192Z,23.3
2022-10-14T02:09:29.662Z,23.3
2022-10-14T02:14:48.153Z,23.3
2022-10-14T02:20:06.669Z,23.3
2022-10-14T02:25:25.411Z,23.3
2022-10-14T02:30:43.909Z,23.3
2022-10-14T02:36:02.697Z,23.3
2022-10-14T02:41:20.877Z,23.3
2022-10-14T02:46:39.091Z,23.3
2022-10-14T02:51:57.331Z,23.3
2022-10-14T02:57:15.805Z,23.3
2022-10-14T03:02:33.735Z,23.3
2022-10-14T03:07:51.986Z,23.3
2022-10-14T03:13:10.455Z,23.3
2022-10-14T03:18:28.937Z,23.3
2022-10-14T03:23:47.439Z,23.3
2022-10-14T03:29:05.636Z,23.3
2022-10-14T03:34:23.960Z,23.4
2022-10-14T03:39:42.475Z,23.4
2022-10-14T03:45:00.942Z,23.4
2022-10-14T03:50:19.443Z,23.4
2022-10-14T03:55:37.962Z,23.4
2022-10-14T04:00:56.153Z,23.3
2022-10-14T04:06:14.640Z,23.4
2022-10-14T04:11:33.428Z,23.3
2022-10-14T04:16:51.897Z,23.3
2022-10-14T04:22:10.387Z,23.3
2022-10-14T04:27:28.906Z,23.3
2022-10-14T04:32:47.077Z,23.3
2022-10-14T04:38:05.582Z,23.3
2022-10-14T04:43:24.381Z,23.3
2022-10-14T04:48:42.849Z,23.3
2022-10-14T04:54:01.622Z,22.9
2022-10-14T04:59:19.855Z,22.7
2022-10-14T05:04:38.319Z,22.5
2022-10-14T05:09:57.554Z,22.8
2022-10-14T05:15:16.066Z,22.8
2022-10-14T05:20:34.537Z,22.9
2022-10-14T05:25:53.295Z,22.9
2022-10-14T05:31:12.182Z,22.9
2022-10-14T05:36:30.911Z,22.9
2022-10-14T05:41:49.690Z,22.9
2022-10-14T05:47:08.212Z,23
2022-10-14T05:52:26.405Z,23
2022-10-14T05:57:44.611Z,23
2022-10-14T06:03:03.347Z,23
2022-10-14T06:08:21.284Z,23
2022-10-14T06:13:39.769Z,23
2022-10-14T06:18:58.571Z,23
2022-10-14T06:24:17.023Z,23
2022-10-14T06:29:35.802Z,23
2022-10-14T06:34:54.318Z,23
2022-10-14T06:40:13.063Z,23
2022-10-14T06:45:31.841Z,23.1
2022-10-14T06:50:50.091Z,23
2022-10-14T06:56:08.543Z,23.1
2022-10-14T07:01:26.857Z,23
2022-10-14T07:06:45.494Z,23.1
2022-10-14T07:12:03.953Z,23.1
2022-10-14T07:17:23.356Z,23
2022-10-14T07:22:42.350Z,23
2022-10-14T07:28:00.271Z,23
2022-10-14T07:33:18.470Z,23.1
2022-10-14T07:38:36.984Z,23.1
2022-10-14T07:43:55.722Z,23.1
2022-10-14T07:49:13.932Z,23
2022-10-14T07:54:32.456Z,23
2022-10-14T07:59:50.627Z,23
2022-10-14T08:05:38.384Z,23
2022-10-14T08:10:57.197Z,23.1
2022-10-14T08:16:15.910Z,23.1
2022-10-14T08:21:34.397Z,23.1
2022-10-14T08:26:52.637Z,23.1
2022-10-14T08:32:11.088Z,23.1
2022-10-14T08:37:29.854Z,23.1
2022-10-14T08:42:48.459Z,23.1
2022-10-14T08:48:06.621Z,23.1
2022-10-14T08:53:25.110Z,23.1
2022-10-14T08:58:43.348Z,23.1
2022-10-14T09:04:01.265Z,23.1
2022-10-14T09:09:19.439Z,23.1
2022-10-14T09:14:37.951Z,23.1
2022-10-14T09:19:55.858Z,23.1
2022-10-14T09:25:14.343Z,23.1
2022-10-14T09:30:32.850Z,23.1
2022-10-14T09:35:51.432Z,23.1
2022-10-14T09:41:10.198Z,23.1
2022-10-14T09:46:28.719Z,23.2
2022-10-14T09:51:47.176Z,23.2
2022-10-14T09:57:05.665Z,23.2
2022-10-14T10:02:23.887Z,23.2
2022-10-14T10:07:42.344Z,23.2
2022-10-14T10:13:00.848Z,23.3
2022-10-14T10:18:19.643Z,23.3
2022-10-14T10:23:37.539Z,23.3
2022-10-14T10:28:56.102Z,23.3
2022-10-14T10:34:14.266Z,23.3
2022-10-14T10:39:32.441Z,23.3
2022-10-14T10:44:50.697Z,23.3
2022-10-14T10:50:08.959Z,23.4
2022-10-14T10:55:27.440Z,23.4
2022-10-14T11:00:45.367Z,23.4
2022-10-14T11:06:03.633Z,23.4
2022-10-14T11:11:21.815Z,23.4
2022-10-14T11:16:40.286Z,23.4
2022-10-14T11:21:58.544Z,23.5
2022-10-14T11:27:22.480Z,23.5
2022-10-14T11:32:43.275Z,23.5
2022-10-14T11:38:01.777Z,23.5
2022-10-14T11:43:20.235Z,23.5
2022-10-14T11:48:38.725Z,23.5
2022-10-14T11:53:57.515Z,23.5
2022-10-14T11:59:15.679Z,23.5
2022-10-14T13:13:38.152Z,23.4
2022-10-14T13:18:56.612Z,23.4
2022-10-14T13:24:15.291Z,23.4
2022-10-14T13:29:33.826Z,23.4
2022-10-14T13:34:52.271Z,23.3
2022-10-14T13:39:54.863Z,23.3
2022-10-14T13:45:13.394Z,23.3
2022-10-14T13:50:31.555Z,23.3
2022-10-14T13:55:54.974Z,23.3
2022-10-14T14:01:13.685Z,23.3
2022-10-14T14:07:00.115Z,23.3
2022-10-14T14:13:16.858Z,23.3
2022-10-14T14:19:07.614Z,23.2
2022-10-14T14:24:28.230Z,23.2
2022-10-14T14:29:47.005Z,23.2
2022-10-14T14:35:05.792Z,23.2
2022-10-14T14:40:23.971Z,23.3
2022-10-14T14:45:42.731Z,23.3
2022-10-14T14:51:01.282Z,23.2
2022-10-14T14:56:20.000Z,23.2
2022-10-14T15:01:38.485Z,23.3
2022-10-14T15:06:57.262Z,23.2
2022-10-14T15:12:16.711Z,23.2
2022-10-14T15:17:34.698Z,23.2
2022-10-14T15:22:53.212Z,23.2
2022-10-14T15:28:11.670Z,23.2
2022-10-14T15:33:30.149Z,23.2
2022-10-14T15:38:48.929Z,23.2
2022-10-14T15:44:07.668Z,23.2
2022-10-14T15:49:26.163Z,23.2
2022-10-14T15:54:44.711Z,23.2
2022-10-14T16:00:03.181Z,23.2
2022-10-14T16:05:21.538Z,23.2
2022-10-14T16:10:39.740Z,23.2
2022-10-14T16:15:57.638Z,23.1
2022-10-14T16:21:16.129Z,23.1
2022-10-14T16:26:34.793Z,23.1
2022-10-14T16:31:53.237Z,23.1
2022-10-14T16:37:11.731Z,23.1
2022-10-14T16:42:29.941Z,23.1
2022-10-14T16:47:48.304Z,23.1
2022-10-14T16:53:07.057Z,23.1
2022-10-14T16:58:24.997Z,23.1
2022-10-14T17:03:43.170Z,23.1
2022-10-14T17:09:01.653Z,23.1
2022-10-14T17:14:04.955Z,23.1
2022-10-14T17:19:23.519Z,23.1
2022-10-14T17:24:26.103Z,23.1
2022-10-14T17:29:44.605Z,23.1
2022-10-14T17:35:03.066Z,23.1
2022-10-14T17:40:21.536Z,23.1
2022-10-14T17:45:40.202Z,23.1
2022-10-14T17:50:58.398Z,23.1
2022-10-14T17:56:17.144Z,23.1
2022-10-14T18:07:26.525Z,23.1
2022-10-14T18:12:45.294Z,23
2022-10-14T18:18:03.804Z,23
2022-10-14T18:23:22.330Z,23.1
2022-10-14T18:28:40.924Z,23.1
2022-10-14T18:33:59.235Z,23.1
2022-10-14T18:39:17.472Z,23.1
2022-10-14T18:44:35.962Z,23.1
2022-10-14T18:49:54.358Z,23.1
2022-10-14T18:55:12.567Z,23.1
2022-10-14T19:00:15.716Z,23.1
2022-10-14T19:05:34.197Z,23.1
2022-10-14T19:10:52.389Z,23.1
2022-10-14T19:16:10.597Z,23.1
2022-10-14T19:21:28.551Z,23.1
2022-10-14T19:26:46.738Z,23.1
2022-10-14T19:32:04.942Z,23.1
2022-10-14T19:37:24.472Z,23.1
2022-10-14T19:42:43.923Z,23.1
2022-10-14T19:48:02.402Z,23.1
2022-10-14T19:53:21.177Z,23.1
2022-10-14T19:58:44.789Z,23.1
2022-10-14T20:04:03.057Z,23.1
2022-10-14T20:09:21.574Z,23.1
2022-10-14T20:14:39.813Z,23.1
2022-10-14T20:19:58.259Z,23.1
2022-10-14T20:25:17.043Z,23.1
2022-10-14T20:30:35.841Z,23.1
2022-10-14T20:35:54.615Z,23.1
2022-10-14T20:41:13.184Z,23.1
2022-10-14T20:46:31.238Z,23.1
2022-10-14T20:51:49.973Z,23.1
2022-10-14T20:57:08.774Z,23.1
2022-10-14T21:02:26.937Z,23.1
2022-10-14T21:07:45.669Z,23.1
2022-10-14T21:13:04.191Z,23.1
2022-10-14T21:18:22.936Z,23.1
2022-10-14T21:23:42.507Z,23.1
2022-10-14T21:29:01.386Z,23.1
2022-10-14T21:34:20.339Z,23.1
2022-10-14T21:39:38.841Z,23.1
2022-10-14T21:44:57.359Z,23.1
2022-10-14T21:50:15.824Z,23.1
2022-10-14T21:55:34.307Z,23.1
2022-10-14T22:00:52.718Z,23.1
2022-10-14T22:06:11.623Z,23.1
2022-10-14T22:11:30.399Z,23.1
2022-10-14T22:16:49.340Z,23.1
2022-10-14T22:22:07.841Z,23.1
2022-10-14T22:27:26.395Z,23.1
2022-10-14T22:32:45.184Z,23.1
2022-10-14T22:38:03.908Z,23.1
2022-10-14T22:43:22.397Z,23.1
2022-10-14T22:48:40.908Z,23.1
2022-10-14T22:53:59.373Z,23.1
2022-10-14T22:59:17.857Z,23.1
2022-10-14T23:04:36.807Z,23.1
2022-10-14T23:09:55.343Z,23.1
2022-10-14T23:15:13.831Z,23.1
2022-10-14T23:20:32.069Z,23.1
2022-10-14T23:25:50.807Z,23.1
2022-10-14T23:31:09.309Z,23.1
2022-10-14T23:36:27.546Z,23.1
2022-10-14T23:41:45.780Z,23.1
2022-10-14T23:47:04.552Z,23.1
2022-10-14T23:52:23.342Z,23.1
2022-10-14T23:57:41.804Z,23.2
